Time;durP1;ratioP1;P1;durP2;ratioP2;P2;SDS_P1;SDS_P2;PMS_P1;PMS_P2;Temp;Humidity;BMP_temperature;BMP_pressure;BME280_temperature;BME280_humidity;BME280_pressure;Samples;Min_cycle;Max_cycle;Signal;HPM_P1;HPM_P2
2021/01/31 00:01:22;;;;;;;;;;;-0.80;99.90;;;;;;5117674;27;19927;-80
2021/01/31 00:03:48;;;;;;;;;;;-0.80;99.90;;;;;;5103700;28;20283;-80
2021/01/31 00:06:13;;;;;;;;;;;-0.80;99.90;;;;;;5106353;27;19959;-80
2021/01/31 00:08:39;;;;;;;;;;;-0.80;99.90;;;;;;5122971;27;19954;-80
2021/01/31 00:11:04;;;;;;;;;;;-0.80;99.90;;;;;;5104822;27;20294;-80
2021/01/31 00:13:30;;;;;;;;;;;-0.80;99.90;;;;;;5124565;27;19915;-80
2021/01/31 00:15:56;;;;;;;;;;;-0.80;99.90;;;;;;5122397;27;19914;-80
2021/01/31 00:18:22;;;;;;;;;;;-0.90;99.90;;;;;;5123558;27;19972;-80
2021/01/31 00:20:49;;;;;;;;;;;-0.90;99.90;;;;;;5122572;27;19918;-80
2021/01/31 00:23:15;;;;;;;;;;;-0.90;99.90;;;;;;5106077;27;19911;-80
2021/01/31 00:25:40;;;;;;;;;;;-0.90;99.90;;;;;;5122765;27;19969;-80
2021/01/31 00:28:06;;;;;;;;;;;-0.90;99.90;;;;;;5122815;27;19957;-80
2021/01/31 00:30:37;;;;;;;;;;;-1.00;99.90;;;;;;5105746;27;20267;-80
2021/01/31 00:33:06;;;;;;;;;;;-1.00;99.90;;;;;;5104818;27;19918;-80
2021/01/31 00:35:34;;;;;;;;;;;-1.00;99.90;;;;;;5103683;28;19912;-80
2021/01/31 00:38:00;;;;;;;;;;;-1.00;99.90;;;;;;5123419;27;19914;-80
2021/01/31 00:40:26;;;;;;;;;;;-1.00;99.90;;;;;;5123143;27;20006;-80
2021/01/31 00:42:51;;;;;;;;;;;-1.00;99.90;;;;;;5121864;27;20456;-80
2021/01/31 00:45:19;;;;;;;;;;;-1.10;99.90;;;;;;5105559;27;19945;-80
2021/01/31 00:47:45;;;;;;;;;;;-1.00;99.90;;;;;;5104756;27;19912;-80
2021/01/31 00:50:21;;;;;;;;;;;-1.00;99.90;;;;;;5121891;27;19915;-80
2021/01/31 00:52:46;;;;;;;;;;;-1.10;99.90;;;;;;5123265;27;19968;-80
2021/01/31 00:55:12;;;;;;;;;;;-1.10;99.90;;;;;;5121995;27;19912;-80
2021/01/31 00:57:37;;;;;;;;;;;-1.00;99.90;;;;;;5123674;27;20385;-80
2021/01/31 01:00:29;;;;;;;;;;;-1.10;99.90;;;;;;5122449;27;19915;-80
2021/01/31 01:02:55;;;;;;;;;;;-1.10;99.90;;;;;;5118257;27;19908;-80
2021/01/31 01:05:21;;;;;;;;;;;-1.10;99.90;;;;;;5123203;27;19912;-80
2021/01/31 01:07:47;;;;;;;;;;;-1.10;99.90;;;;;;5123117;27;19956;-80
2021/01/31 01:10:14;;;;;;;;;;;-1.20;99.90;;;;;;5103127;28;19998;-80
2021/01/31 01:12:39;;;;;;;;;;;-1.10;99.90;;;;;;5105040;28;19908;-80
2021/01/31 01:15:07;;;;;;;;;;;-1.20;99.90;;;;;;5124829;27;19915;-79
2021/01/31 01:17:32;;;;;;;;;;;-1.20;99.90;;;;;;5111254;27;19919;-80
2021/01/31 01:19:57;;;;;;;;;;;-1.20;99.90;;;;;;5127719;27;19907;-80
2021/01/31 01:22:23;;;;;;;;;;;-1.20;99.90;;;;;;5111275;27;19912;-80
2021/01/31 01:24:52;;;;;;;;;;;-1.20;99.90;;;;;;5128706;27;19907;-80
2021/01/31 01:27:21;;;;;;;;;;;-1.30;99.90;;;;;;5128309;27;19987;-80
2021/01/31 01:29:47;;;;;;;;;;;-1.20;99.90;;;;;;5110585;27;19907;-80
2021/01/31 01:32:12;;;;;;;;;;;-1.30;99.90;;;;;;5111703;27;19971;-80
2021/01/31 01:34:38;;;;;;;;;;;-1.30;99.90;;;;;;5128710;27;19908;-79
2021/01/31 01:37:03;;;;;;;;;;;-1.30;99.90;;;;;;5110898;27;20378;-81
2021/01/31 01:39:29;;;;;;;;;;;-1.40;99.90;;;;;;5111669;27;19972;-81
2021/01/31 01:41:54;;;;;;;;;;;-1.40;99.90;;;;;;5109456;27;20002;-80
2021/01/31 01:44:20;;;;;;;;;;;-1.40;99.90;;;;;;5129851;27;19911;-80
2021/01/31 01:46:47;;;;;;;;;;;-1.40;99.90;;;;;;5110901;27;20377;-80
2021/01/31 01:49:18;;;;;;;;;;;-1.40;99.90;;;;;;5109565;27;19908;-80
2021/01/31 01:51:49;;;;;;;;;;;-1.40;99.90;;;;;;5110676;27;19961;-80
2021/01/31 01:54:24;;;;;;;;;;;-1.50;99.90;;;;;;5111680;27;19963;-80
2021/01/31 01:56:53;;;;;;;;;;;-1.50;99.90;;;;;;5129821;27;19912;-80
2021/01/31 01:59:19;;;;;;;;;;;-1.50;99.90;;;;;;5128236;27;19994;-80
2021/01/31 02:01:52;;;;;;;;;;;-1.50;99.90;;;;;;5128609;27;20006;-80
2021/01/31 02:04:18;;;;;;;;;;;-1.50;99.90;;;;;;5128416;27;19934;-80
2021/01/31 02:06:43;;;;;;;;;;;-1.50;99.90;;;;;;5110629;27;20291;-80
2021/01/31 02:09:09;;;;;;;;;;;-1.60;99.90;;;;;;5129637;27;19908;-80
2021/01/31 02:11:34;;;;;;;;;;;-1.60;99.90;;;;;;5109165;27;19919;-80
2021/01/31 02:14:06;;;;;;;;;;;-1.60;99.90;;;;;;5129815;27;19919;-80
2021/01/31 02:16:40;;;;;;;;;;;-1.60;99.90;;;;;;5111498;27;19915;-80
2021/01/31 02:19:19;;;;;;;;;;;-1.70;99.90;;;;;;5109235;27;20283;-79
2021/01/31 02:21:57;;;;;;;;;;;-1.70;99.90;;;;;;5129051;27;19908;-80
2021/01/31 02:24:41;;;;;;;;;;;-1.70;99.90;;;;;;5111524;27;20359;-80
2021/01/31 02:27:16;;;;;;;;;;;-1.70;99.90;;;;;;5108552;27;19966;-80
2021/01/31 02:29:47;;;;;;;;;;;-1.80;99.90;;;;;;5125237;27;20002;-81
2021/01/31 02:32:23;;;;;;;;;;;-1.80;99.90;;;;;;5124277;27;19974;-80
2021/01/31 02:34:56;;;;;;;;;;;-1.80;99.90;;;;;;5125073;27;19914;-80
2021/01/31 02:37:25;;;;;;;;;;;-1.80;99.90;;;;;;5108376;27;20286;-81
2021/01/31 02:40:02;;;;;;;;;;;-1.80;99.90;;;;;;5107903;27;19911;-81
2021/01/31 02:42:34;;;;;;;;;;;-1.80;99.90;;;;;;5107185;27;20349;-80
2021/01/31 02:44:59;;;;;;;;;;;-1.80;99.90;;;;;;5125098;27;19912;-80
2021/01/31 02:47:25;;;;;;;;;;;-1.80;99.90;;;;;;5106752;27;19908;-80
2021/01/31 02:49:54;;;;;;;;;;;-1.80;99.90;;;;;;5126257;27;19907;-80
2021/01/31 02:52:25;;;;;;;;;;;-1.80;99.90;;;;;;5106020;27;19916;-80
2021/01/31 02:54:53;;;;;;;;;;;-1.80;99.90;;;;;;5124347;27;19908;-79
2021/01/31 02:57:45;;;;;;;;;;;-1.80;99.90;;;;;;5107658;27;19907;-80
2021/01/31 03:00:19;;;;;;;;;;;-1.80;99.90;;;;;;5080516;28;19977;-80
2021/01/31 03:02:49;;;;;;;;;;;-1.80;99.90;;;;;;5106705;27;19965;-80
2021/01/31 03:05:16;;;;;;;;;;;-1.80;99.90;;;;;;5105431;27;19959;-80
2021/01/31 03:07:51;;;;;;;;;;;-1.80;99.90;;;;;;5125038;27;20297;-80
2021/01/31 03:10:20;;;;;;;;;;;-1.80;99.90;;;;;;5125728;27;20347;-79
2021/01/31 03:12:54;;;;;;;;;;;-1.80;99.90;;;;;;5106471;27;20371;-80
2021/01/31 03:15:23;;;;;;;;;;;-1.80;99.90;;;;;;5107834;27;19914;-80
2021/01/31 03:17:51;;;;;;;;;;;-1.80;99.90;;;;;;5106215;27;19908;-80
2021/01/31 03:20:28;;;;;;;;;;;-1.80;99.90;;;;;;5105033;27;19929;-80
2021/01/31 03:22:53;;;;;;;;;;;-1.80;99.90;;;;;;5123392;27;19922;-80
2021/01/31 03:25:25;;;;;;;;;;;-1.80;99.90;;;;;;5123797;27;19907;-80
2021/01/31 03:27:50;;;;;;;;;;;-1.80;99.90;;;;;;5105891;28;19912;-80
2021/01/31 03:30:16;;;;;;;;;;;-1.80;99.90;;;;;;5125371;27;19907;-80
2021/01/31 03:32:51;;;;;;;;;;;-1.80;99.90;;;;;;5123840;27;19911;-80
2021/01/31 03:35:20;;;;;;;;;;;-1.80;99.90;;;;;;5104868;27;19916;-81
2021/01/31 03:37:50;;;;;;;;;;;-1.90;99.90;;;;;;5105807;27;19995;-80
2021/01/31 03:40:16;;;;;;;;;;;-1.90;99.90;;;;;;5125278;27;19930;-80
2021/01/31 03:42:43;;;;;;;;;;;-1.90;99.90;;;;;;5105291;27;19912;-80
2021/01/31 03:45:09;;;;;;;;;;;-1.90;99.90;;;;;;5123599;27;19914;-80
2021/01/31 03:47:50;;;;;;;;;;;-1.90;99.90;;;;;;5125015;27;19908;-80
2021/01/31 03:50:16;;;;;;;;;;;-1.90;99.90;;;;;;5106627;27;19935;-80
2021/01/31 03:52:42;;;;;;;;;;;-1.90;99.90;;;;;;5123529;27;19916;-80
2021/01/31 03:55:07;;;;;;;;;;;-1.90;99.90;;;;;;5105271;27;20302;-80
2021/01/31 03:57:42;;;;;;;;;;;-1.90;99.90;;;;;;5124829;27;20331;-80
2021/01/31 04:00:09;;;;;;;;;;;-1.90;99.90;;;;;;5105498;27;19912;-80
2021/01/31 04:02:43;;;;;;;;;;;-1.90;99.90;;;;;;5122508;27;19966;-80
2021/01/31 04:05:11;;;;;;;;;;;-1.90;99.90;;;;;;5123235;27;19907;-80
2021/01/31 04:07:38;;;;;;;;;;;-1.90;99.90;;;;;;5124704;27;20026;-80
2021/01/31 04:10:04;;;;;;;;;;;-2.00;99.90;;;;;;5123336;27;19912;-80
2021/01/31 04:12:34;;;;;;;;;;;-2.00;99.90;;;;;;5104407;27;20386;-80
2021/01/31 04:15:19;;;;;;;;;;;-2.00;99.90;;;;;;5104414;27;19908;-80
2021/01/31 04:17:46;;;;;;;;;;;-2.00;99.90;;;;;;5105102;27;19907;-80
2021/01/31 04:20:12;;;;;;;;;;;-2.00;99.90;;;;;;5103367;27;20002;-80
2021/01/31 04:22:37;;;;;;;;;;;-2.00;99.90;;;;;;5106090;27;19950;-80
2021/01/31 04:25:03;;;;;;;;;;;-2.00;99.90;;;;;;5104632;27;20018;-80
2021/01/31 04:27:29;;;;;;;;;;;-2.00;99.90;;;;;;5122750;27;19914;-80
2021/01/31 04:29:54;;;;;;;;;;;-2.10;99.90;;;;;;5124169;27;19907;-80
2021/01/31 04:32:20;;;;;;;;;;;-2.00;99.90;;;;;;5103948;27;20325;-80
2021/01/31 04:34:45;;;;;;;;;;;-2.00;99.90;;;;;;5123337;27;19913;-80
2021/01/31 04:37:10;;;;;;;;;;;-2.10;99.90;;;;;;5105377;27;19953;-80
2021/01/31 04:39:36;;;;;;;;;;;-2.10;99.90;;;;;;5103580;27;19916;-80
2021/01/31 04:42:02;;;;;;;;;;;-2.10;99.90;;;;;;5105302;27;20659;-80
2021/01/31 04:44:27;;;;;;;;;;;-2.10;99.90;;;;;;5123199;27;19972;-80
2021/01/31 04:47:02;;;;;;;;;;;-2.10;99.90;;;;;;5122075;27;19939;-80
2021/01/31 04:49:46;;;;;;;;;;;-2.20;99.90;;;;;;5122252;27;19912;-80
2021/01/31 04:52:11;;;;;;;;;;;-2.20;99.90;;;;;;5123767;27;19945;-80
2021/01/31 04:54:37;;;;;;;;;;;-2.20;99.90;;;;;;5103475;28;19911;-80
2021/01/31 04:57:11;;;;;;;;;;;-2.20;99.90;;;;;;5123474;27;19916;-80
2021/01/31 04:59:38;;;;;;;;;;;-2.20;99.90;;;;;;5124179;27;19947;-80
2021/01/31 05:02:06;;;;;;;;;;;-2.20;99.90;;;;;;5124553;27;19920;-79
2021/01/31 05:04:33;;;;;;;;;;;-2.20;99.90;;;;;;5122567;27;19908;-79
2021/01/31 05:07:02;;;;;;;;;;;-2.20;99.90;;;;;;5103148;28;19917;-80
2021/01/31 05:09:28;;;;;;;;;;;-2.20;99.90;;;;;;5104330;28;19907;-80
2021/01/31 05:11:56;;;;;;;;;;;-2.20;99.90;;;;;;5119278;28;20406;-80
2021/01/31 05:14:40;;;;;;;;;;;-2.20;99.90;;;;;;5107632;28;20338;-80
2021/01/31 05:17:06;;;;;;;;;;;-2.20;99.90;;;;;;5124118;28;19998;-80
2021/01/31 05:19:33;;;;;;;;;;;-2.20;99.90;;;;;;5125749;28;20434;-80
2021/01/31 05:21:58;;;;;;;;;;;-2.20;99.90;;;;;;5123532;28;19914;-80
2021/01/31 05:24:24;;;;;;;;;;;-2.30;99.90;;;;;;5102815;28;19907;-79
2021/01/31 05:27:03;;;;;;;;;;;-2.30;99.90;;;;;;5096080;28;20427;-80
2021/01/31 05:29:32;;;;;;;;;;;-2.30;99.90;;;;;;5121852;28;20002;-80
2021/01/31 05:32:09;;;;;;;;;;;-2.30;99.90;;;;;;5105557;28;19911;-80
2021/01/31 05:34:45;;;;;;;;;;;-2.30;99.90;;;;;;5122809;28;19908;-79
2021/01/31 05:37:12;;;;;;;;;;;-2.30;99.90;;;;;;5105513;28;19973;-79
2021/01/31 05:39:45;;;;;;;;;;;-2.30;99.90;;;;;;5123290;28;19972;-80
2021/01/31 05:42:13;;;;;;;;;;;-2.30;99.90;;;;;;5120741;28;19914;-79
2021/01/31 05:44:39;;;;;;;;;;;-2.30;99.90;;;;;;5098380;28;19907;-80
2021/01/31 05:47:15;;;;;;;;;;;-2.30;99.90;;;;;;5120430;28;19934;-79
2021/01/31 05:49:40;;;;;;;;;;;-2.40;99.90;;;;;;5125101;28;19998;-80
2021/01/31 05:52:11;;;;;;;;;;;-2.40;99.90;;;;;;5122565;28;20002;-79
2021/01/31 05:54:38;;;;;;;;;;;-2.40;99.90;;;;;;5120331;28;20439;-79
2021/01/31 05:57:19;;;;;;;;;;;-2.40;99.90;;;;;;5106275;28;19960;-80
2021/01/31 05:59:44;;;;;;;;;;;-2.40;99.90;;;;;;5102274;28;20295;-80
2021/01/31 06:02:18;;;;;;;;;;;-2.40;99.90;;;;;;5122683;27;19927;-80
2021/01/31 06:04:44;;;;;;;;;;;-2.40;99.90;;;;;;5111185;27;19907;-80
2021/01/31 06:07:11;;;;;;;;;;;-2.40;99.90;;;;;;5126775;27;19908;-80
2021/01/31 06:09:37;;;;;;;;;;;-2.50;99.90;;;;;;5109270;27;19914;-80
2021/01/31 06:12:04;;;;;;;;;;;-2.40;99.90;;;;;;5110297;27;20282;-80
2021/01/31 06:14:31;;;;;;;;;;;-2.50;99.90;;;;;;5107609;27;20426;-80
2021/01/31 06:17:05;;;;;;;;;;;-2.50;99.90;;;;;;5125845;27;19911;-80
2021/01/31 06:19:37;;;;;;;;;;;-2.50;99.90;;;;;;5128825;27;19942;-80
2021/01/31 06:22:06;;;;;;;;;;;-2.50;99.90;;;;;;5126669;27;19955;-80
2021/01/31 06:24:34;;;;;;;;;;;-2.50;99.90;;;;;;5124202;27;19907;-80
2021/01/31 06:27:00;;;;;;;;;;;-2.50;99.90;;;;;;5126243;27;19994;-80
2021/01/31 06:29:44;;;;;;;;;;;-2.60;99.90;;;;;;5106694;27;20048;-80
2021/01/31 06:32:12;;;;;;;;;;;-2.60;99.90;;;;;;5126097;27;20340;-80
2021/01/31 06:34:44;;;;;;;;;;;-2.60;99.90;;;;;;5126192;27;19907;-80
2021/01/31 06:37:15;;;;;;;;;;;-2.70;99.90;;;;;;5126732;27;19908;-80
2021/01/31 06:39:46;;;;;;;;;;;-2.70;99.90;;;;;;5126716;27;20028;-80
2021/01/31 06:42:34;;;;;;;;;;;-2.70;99.90;;;;;;5126451;27;20440;-80
2021/01/31 06:45:15;;;;;;;;;;;-2.70;99.90;;;;;;5104444;27;20010;-80
2021/01/31 06:47:59;;;;;;;;;;;-2.70;99.90;;;;;;5107635;27;20286;-80
2021/01/31 06:50:44;;;;;;;;;;;-2.70;99.90;;;;;;5107434;27;19907;-80
2021/01/31 06:53:15;;;;;;;;;;;-2.70;99.90;;;;;;5114184;27;19957;-80
2021/01/31 06:56:00;;;;;;;;;;;-2.70;99.90;;;;;;5128525;27;19915;-80
2021/01/31 06:58:35;;;;;;;;;;;-2.70;99.90;;;;;;5124635;27;19907;-80
2021/01/31 07:01:12;;;;;;;;;;;-2.70;99.90;;;;;;5114812;28;19927;-80
2021/01/31 07:03:45;;;;;;;;;;;-2.60;99.90;;;;;;5096189;28;21531;-80
2021/01/31 07:06:20;;;;;;;;;;;-2.70;99.90;;;;;;5115267;28;19970;-80
2021/01/31 07:08:45;;;;;;;;;;;-2.60;99.90;;;;;;5115610;28;20367;-80
2021/01/31 07:11:32;;;;;;;;;;;-2.70;99.90;;;;;;5100486;27;19919;-79
2021/01/31 07:14:09;;;;;;;;;;;-2.70;99.90;;;;;;5130823;27;19912;-79
2021/01/31 07:16:53;;;;;;;;;;;-2.70;99.90;;;;;;5110940;27;19912;-79
2021/01/31 07:19:38;;;;;;;;;;;-2.70;99.90;;;;;;5105419;27;19908;-79
2021/01/31 07:22:15;;;;;;;;;;;-2.70;99.90;;;;;;5112801;27;20002;-79
2021/01/31 07:24:46;;;;;;;;;;;-2.70;99.90;;;;;;5135335;27;20010;-79
2021/01/31 07:27:27;;;;;;;;;;;-2.70;99.90;;;;;;5136011;27;19907;-80
2021/01/31 07:30:06;;;;;;;;;;;-2.80;99.90;;;;;;5136009;27;19911;-80
2021/01/31 07:32:40;;;;;;;;;;;-2.80;99.90;;;;;;5135599;27;19919;-79
2021/01/31 07:35:08;;;;;;;;;;;-2.80;99.90;;;;;;5117512;27;19953;-79
2021/01/31 07:37:35;;;;;;;;;;;-2.70;99.90;;;;;;5135956;27;19907;-79
2021/01/31 07:40:07;;;;;;;;;;;-2.70;99.90;;;;;;5135904;27;20279;-79
2021/01/31 07:42:35;;;;;;;;;;;-2.70;99.90;;;;;;5117403;27;19963;-79
2021/01/31 07:45:15;;;;;;;;;;;-2.70;99.90;;;;;;5117381;27;19908;-79
2021/01/31 07:47:40;;;;;;;;;;;-2.70;99.90;;;;;;5135887;27;20010;-79
2021/01/31 07:50:06;;;;;;;;;;;-2.70;99.90;;;;;;5117000;27;19961;-79
2021/01/31 07:52:45;;;;;;;;;;;-2.70;99.90;;;;;;5117150;27;19918;-79
2021/01/31 07:55:23;;;;;;;;;;;-2.70;99.90;;;;;;5117219;27;19915;-79
2021/01/31 07:58:00;;;;;;;;;;;-2.70;99.90;;;;;;5117275;27;19911;-79
2021/01/31 08:00:32;;;;;;;;;;;-2.60;99.90;;;;;;5135410;27;19926;-80
2021/01/31 08:02:58;;;;;;;;;;;-2.60;99.90;;;;;;5130732;27;19911;-79
2021/01/31 08:05:50;;;;;;;;;;;-2.60;99.90;;;;;;5109542;27;20263;-79
2021/01/31 08:08:35;;;;;;;;;;;-2.60;99.90;;;;;;5116909;27;20287;-79
2021/01/31 08:11:01;;;;;;;;;;;-2.50;99.90;;;;;;5116872;27;20013;-79
2021/01/31 08:13:32;;;;;;;;;;;-2.50;99.90;;;;;;5116819;27;19945;-79
2021/01/31 08:15:58;;;;;;;;;;;-2.50;99.90;;;;;;5116740;27;20379;-79
2021/01/31 08:18:23;;;;;;;;;;;-2.40;99.90;;;;;;5110174;27;20014;-79
2021/01/31 08:20:49;;;;;;;;;;;-2.40;99.90;;;;;;5124127;27;19915;-78
2021/01/31 08:23:15;;;;;;;;;;;-2.30;99.90;;;;;;5104930;27;20399;-78
2021/01/31 08:25:55;;;;;;;;;;;-2.20;99.90;;;;;;5123909;27;19908;-79
2021/01/31 08:28:28;;;;;;;;;;;-2.20;99.90;;;;;;5107075;28;19961;-79
2021/01/31 08:31:05;;;;;;;;;;;-2.10;99.90;;;;;;5123409;27;19915;-79
2021/01/31 08:33:34;;;;;;;;;;;-2.10;99.90;;;;;;5123171;27;19998;-79
2021/01/31 08:36:01;;;;;;;;;;;-2.00;99.90;;;;;;5102430;27;20286;-79
2021/01/31 08:38:32;;;;;;;;;;;-1.90;99.90;;;;;;5125101;27;20013;-79
2021/01/31 08:41:01;;;;;;;;;;;-1.90;99.90;;;;;;5124125;27;19951;-79
2021/01/31 08:43:34;;;;;;;;;;;-1.80;99.90;;;;;;5134623;27;19907;-79
2021/01/31 08:46:15;;;;;;;;;;;-1.70;99.90;;;;;;5107077;27;20315;-79
2021/01/31 08:48:41;;;;;;;;;;;-1.70;99.90;;;;;;5109606;27;20286;-79
2021/01/31 08:51:12;;;;;;;;;;;-1.70;99.90;;;;;;5127353;27;20014;-79
2021/01/31 08:53:38;;;;;;;;;;;-1.70;99.90;;;;;;5123268;27;19907;-79
2021/01/31 08:56:11;;;;;;;;;;;-1.60;99.90;;;;;;5116726;27;19972;-79
2021/01/31 08:58:37;;;;;;;;;;;-1.60;99.90;;;;;;5122687;27;19911;-79
2021/01/31 09:01:03;;;;;;;;;;;-1.60;99.90;;;;;;5116382;27;19931;-79
2021/01/31 09:03:28;;;;;;;;;;;-1.60;99.90;;;;;;5113925;28;19908;-79
2021/01/31 09:05:54;;;;;;;;;;;-1.60;99.90;;;;;;5095326;28;20371;-80
2021/01/31 09:08:19;;;;;;;;;;;-1.60;99.90;;;;;;5123121;27;19918;-80
2021/01/31 09:10:46;;;;;;;;;;;-1.50;99.90;;;;;;5131412;27;19990;-80
2021/01/31 09:13:12;;;;;;;;;;;-1.50;99.90;;;;;;5134049;27;19956;-81
2021/01/31 09:15:37;;;;;;;;;;;-1.40;99.90;;;;;;5124508;28;19996;-81
2021/01/31 09:18:14;;;;;;;;;;;-1.30;99.90;;;;;;5121850;28;19911;-81
2021/01/31 09:20:40;;;;;;;;;;;-1.30;99.90;;;;;;5122760;28;20402;-80
2021/01/31 09:23:07;;;;;;;;;;;-1.30;99.90;;;;;;5117959;28;19938;-81
2021/01/31 09:25:34;;;;;;;;;;;-1.20;99.90;;;;;;5110640;28;20355;-81
2021/01/31 09:28:01;;;;;;;;;;;-1.20;99.90;;;;;;5112494;28;19916;-81
2021/01/31 09:30:28;;;;;;;;;;;-1.20;99.90;;;;;;5113437;28;19915;-81
2021/01/31 09:32:56;;;;;;;;;;;-1.10;99.90;;;;;;5113800;28;19915;-81
2021/01/31 09:35:29;;;;;;;;;;;-1.00;99.90;;;;;;5113408;28;19907;-81
2021/01/31 09:38:06;;;;;;;;;;;-0.90;99.90;;;;;;5117490;28;19908;-81
2021/01/31 09:40:33;;;;;;;;;;;-0.80;99.90;;;;;;5099821;28;20384;-81
2021/01/31 09:42:58;;;;;;;;;;;-0.70;99.90;;;;;;5099261;28;20309;-80
2021/01/31 09:45:39;;;;;;;;;;;-0.60;99.90;;;;;;5099222;28;19956;-80
2021/01/31 09:48:10;;;;;;;;;;;-0.60;99.90;;;;;;5117414;28;19908;-80
2021/01/31 09:50:35;;;;;;;;;;;-0.50;99.90;;;;;;5117346;28;19907;-80
2021/01/31 09:53:01;;;;;;;;;;;-0.40;99.90;;;;;;5117189;28;19919;-80
2021/01/31 09:55:28;;;;;;;;;;;-0.40;99.90;;;;;;5117287;28;19908;-80
2021/01/31 09:57:55;;;;;;;;;;;-0.30;99.90;;;;;;5117193;28;19912;-80
2021/01/31 10:00:28;;;;;;;;;;;-0.20;99.90;;;;;;5115110;28;19920;-80
2021/01/31 10:03:00;;;;;;;;;;;-0.10;99.90;;;;;;5115258;28;19912;-79
2021/01/31 10:05:26;;;;;;;;;;;0.00;99.90;;;;;;5100498;28;20363;-80
2021/01/31 10:07:51;;;;;;;;;;;0.00;99.90;;;;;;5096069;28;19915;-80
2021/01/31 10:10:23;;;;;;;;;;;0.00;99.90;;;;;;5096215;28;20408;-79
2021/01/31 10:12:48;;;;;;;;;;;0.00;99.90;;;;;;5110290;28;19912;-80
2021/01/31 10:15:34;;;;;;;;;;;0.00;99.90;;;;;;5107796;28;20362;-80
2021/01/31 10:17:59;;;;;;;;;;;0.00;99.90;;;;;;5112861;28;19909;-80
2021/01/31 10:20:35;;;;;;;;;;;0.10;99.90;;;;;;5104619;28;19914;-80
2021/01/31 10:23:18;;;;;;;;;;;0.10;99.90;;;;;;5109694;28;20279;-80
2021/01/31 10:25:57;;;;;;;;;;;0.10;99.90;;;;;;5105314;28;19920;-80
2021/01/31 10:28:34;;;;;;;;;;;0.20;99.90;;;;;;5104733;28;19912;-81
2021/01/31 10:30:59;;;;;;;;;;;0.30;99.90;;;;;;5105574;28;19964;-80
2021/01/31 10:33:37;;;;;;;;;;;0.40;99.90;;;;;;5103698;28;19908;-80
2021/01/31 10:36:21;;;;;;;;;;;0.50;99.90;;;;;;5095379;28;19915;-80
2021/01/31 10:38:47;;;;;;;;;;;0.60;99.90;;;;;;5104535;28;19916;-80
2021/01/31 10:41:12;;;;;;;;;;;0.70;99.90;;;;;;5106790;28;20001;-80
2021/01/31 10:43:38;;;;;;;;;;;0.80;99.90;;;;;;5102797;28;19908;-80
2021/01/31 10:46:03;;;;;;;;;;;0.90;99.90;;;;;;5105264;28;19957;-80
2021/01/31 10:48:29;;;;;;;;;;;1.00;99.90;;;;;;5102821;27;20000;-80
2021/01/31 10:50:54;;;;;;;;;;;1.10;99.90;;;;;;5102779;28;20386;-80
2021/01/31 10:53:20;;;;;;;;;;;1.40;99.90;;;;;;5102525;28;19923;-80
2021/01/31 10:55:46;;;;;;;;;;;2.20;99.90;;;;;;5100816;28;19987;-80
2021/01/31 10:58:11;;;;;;;;;;;2.80;99.90;;;;;;5104154;28;19912;-80
2021/01/31 11:00:37;;;;;;;;;;;2.70;99.60;;;;;;5096829;28;19920;-80
2021/01/31 11:03:02;;;;;;;;;;;2.70;99.20;;;;;;5100634;28;19968;-80
2021/01/31 11:05:28;;;;;;;;;;;3.20;99.10;;;;;;5110735;28;19999;-80
2021/01/31 11:07:53;;;;;;;;;;;3.50;98.60;;;;;;5107715;28;20386;-80
2021/01/31 11:10:19;;;;;;;;;;;4.10;97.90;;;;;;5097032;28;19954;-80
2021/01/31 11:12:44;;;;;;;;;;;4.40;96.50;;;;;;5095841;28;19912;-81
2021/01/31 11:15:11;;;;;;;;;;;4.90;95.80;;;;;;5093622;28;20014;-81
2021/01/31 11:17:36;;;;;;;;;;;5.40;94.60;;;;;;5095583;28;19915;-80
2021/01/31 11:20:02;;;;;;;;;;;5.50;93.70;;;;;;5095272;28;19908;-81
2021/01/31 11:22:28;;;;;;;;;;;5.40;93.20;;;;;;5097451;28;20009;-81
2021/01/31 11:24:53;;;;;;;;;;;5.20;93.60;;;;;;5107739;28;19953;-81
2021/01/31 11:27:19;;;;;;;;;;;5.50;93.70;;;;;;5105635;28;19922;-81
2021/01/31 11:29:44;;;;;;;;;;;6.20;93.20;;;;;;5103846;28;19908;-81
2021/01/31 11:32:09;;;;;;;;;;;6.60;91.30;;;;;;5101331;28;19920;-81
2021/01/31 11:34:35;;;;;;;;;;;6.70;88.70;;;;;;5103617;28;19908;-80
2021/01/31 11:37:00;;;;;;;;;;;6.40;90.00;;;;;;5105567;28;20439;-80
2021/01/31 11:39:29;;;;;;;;;;;6.50;91.30;;;;;;5105598;28;19915;-81
2021/01/31 11:41:56;;;;;;;;;;;6.80;91.70;;;;;;5098926;28;19995;-81
2021/01/31 11:44:22;;;;;;;;;;;7.50;91.60;;;;;;5100592;28;20003;-80
2021/01/31 11:46:47;;;;;;;;;;;8.10;91.10;;;;;;5113111;28;19990;-80
2021/01/31 11:49:13;;;;;;;;;;;8.50;90.80;;;;;;5114228;28;19912;-81
2021/01/31 11:51:38;;;;;;;;;;;8.70;89.10;;;;;;5113063;28;19912;-80
2021/01/31 11:54:04;;;;;;;;;;;8.70;85.20;;;;;;5106259;28;20454;-80
2021/01/31 11:56:29;;;;;;;;;;;8.50;86.40;;;;;;5103215;28;20334;-80
2021/01/31 11:58:54;;;;;;;;;;;8.40;87.00;;;;;;5109603;28;19907;-81
2021/01/31 12:01:20;;;;;;;;;;;8.20;82.90;;;;;;5122209;27;19919;-81
2021/01/31 12:03:46;;;;;;;;;;;8.00;80.40;;;;;;5128801;27;19911;-81
2021/01/31 12:06:11;;;;;;;;;;;7.60;79.60;;;;;;5108869;27;19939;-81
2021/01/31 12:08:37;;;;;;;;;;;7.40;84.10;;;;;;5104055;27;19986;-81
2021/01/31 12:11:02;;;;;;;;;;;7.60;86.20;;;;;;5099025;28;19916;-81
2021/01/31 12:13:28;;;;;;;;;;;7.40;83.60;;;;;;5114146;28;19933;-81
2021/01/31 12:15:53;;;;;;;;;;;7.10;84.70;;;;;;5128326;27;19922;-80
2021/01/31 12:18:19;;;;;;;;;;;7.00;84.10;;;;;;5096974;28;19943;-81
2021/01/31 12:20:44;;;;;;;;;;;7.20;83.70;;;;;;5114402;28;19908;-81
2021/01/31 12:23:10;;;;;;;;;;;7.10;79.20;;;;;;5095718;28;19908;-81
2021/01/31 12:25:35;;;;;;;;;;;6.90;79.30;;;;;;5095755;28;20471;-81
2021/01/31 12:28:01;;;;;;;;;;;6.60;78.10;;;;;;5113567;28;19914;-81
2021/01/31 12:30:28;;;;;;;;;;;6.30;77.50;;;;;;5114144;28;19908;-81
2021/01/31 12:32:58;;;;;;;;;;;6.40;80.80;;;;;;5128999;27;19923;-81
2021/01/31 12:35:24;;;;;;;;;;;6.10;79.60;;;;;;5108223;28;19908;-81
2021/01/31 12:37:49;;;;;;;;;;;5.90;83.20;;;;;;5114054;28;19915;-81
2021/01/31 12:40:15;;;;;;;;;;;5.70;86.10;;;;;;5117186;27;19998;-81
2021/01/31 12:42:44;;;;;;;;;;;5.60;87.90;;;;;;5096424;27;19907;-81
2021/01/31 12:45:10;;;;;;;;;;;5.50;87.50;;;;;;5120498;27;20359;-81
2021/01/31 12:47:36;;;;;;;;;;;5.60;87.70;;;;;;5107732;27;19907;-80
2021/01/31 12:50:02;;;;;;;;;;;5.70;88.80;;;;;;5099906;27;19919;-80
2021/01/31 12:52:28;;;;;;;;;;;5.80;90.00;;;;;;5115767;27;19919;-81
2021/01/31 12:54:56;;;;;;;;;;;5.80;87.40;;;;;;5127898;27;19916;-81
2021/01/31 12:57:21;;;;;;;;;;;5.70;87.20;;;;;;5100820;28;19914;-81
2021/01/31 12:59:47;;;;;;;;;;;5.80;88.20;;;;;;5121210;27;19934;-81
2021/01/31 13:02:12;;;;;;;;;;;5.90;88.00;;;;;;5091789;28;20280;-81
2021/01/31 13:04:40;;;;;;;;;;;6.00;88.90;;;;;;5104781;28;19919;-81
2021/01/31 13:07:05;;;;;;;;;;;6.20;86.80;;;;;;5103060;28;19955;-81
2021/01/31 13:09:33;;;;;;;;;;;6.30;87.00;;;;;;5102165;28;20356;-81
2021/01/31 13:11:59;;;;;;;;;;;6.20;86.40;;;;;;5099496;28;19918;-82
2021/01/31 13:14:25;;;;;;;;;;;6.20;83.00;;;;;;5105116;28;20346;-81
2021/01/31 13:16:54;;;;;;;;;;;6.10;83.80;;;;;;5092039;28;19908;-80
2021/01/31 13:19:22;;;;;;;;;;;6.10;83.50;;;;;;5088257;28;20368;-80
2021/01/31 13:21:51;;;;;;;;;;;6.20;86.10;;;;;;5092241;28;20386;-81
2021/01/31 13:24:17;;;;;;;;;;;6.40;84.60;;;;;;5090944;28;19916;-80
2021/01/31 13:26:42;;;;;;;;;;;6.70;86.20;;;;;;5102704;28;19912;-80
2021/01/31 13:29:08;;;;;;;;;;;6.70;86.10;;;;;;5095172;28;19960;-80
2021/01/31 13:31:33;;;;;;;;;;;6.90;84.70;;;;;;5101999;28;19926;-80
2021/01/31 13:33:59;;;;;;;;;;;7.00;83.20;;;;;;5102122;28;19982;-80
2021/01/31 13:36:24;;;;;;;;;;;7.10;81.40;;;;;;5091132;28;19920;-80
2021/01/31 13:38:50;;;;;;;;;;;7.00;76.50;;;;;;5092326;28;20849;-80
2021/01/31 13:41:15;;;;;;;;;;;6.80;74.50;;;;;;5090876;28;19950;-81
2021/01/31 13:43:40;;;;;;;;;;;6.70;74.60;;;;;;5090257;28;19974;-80
2021/01/31 13:46:06;;;;;;;;;;;6.70;76.00;;;;;;5095145;28;20021;-81
2021/01/31 13:48:31;;;;;;;;;;;6.70;77.60;;;;;;5100975;28;19908;-80
2021/01/31 13:50:57;;;;;;;;;;;6.70;76.60;;;;;;5095455;28;19915;-80
2021/01/31 13:53:22;;;;;;;;;;;6.80;75.40;;;;;;5091064;28;20023;-80
2021/01/31 13:55:48;;;;;;;;;;;7.00;76.00;;;;;;5094897;28;19915;-80
2021/01/31 13:58:13;;;;;;;;;;;7.20;77.20;;;;;;5098231;28;20366;-81
2021/01/31 14:00:39;;;;;;;;;;;7.30;76.50;;;;;;5097856;28;20323;-81
2021/01/31 14:03:05;;;;;;;;;;;7.40;75.60;;;;;;5114377;28;19995;-81
2021/01/31 14:05:33;;;;;;;;;;;7.50;77.30;;;;;;5097665;28;19919;-80
2021/01/31 14:07:59;;;;;;;;;;;7.60;76.00;;;;;;5112306;28;19915;-81
2021/01/31 14:10:25;;;;;;;;;;;7.60;77.20;;;;;;5115035;28;19915;-81
2021/01/31 14:12:50;;;;;;;;;;;7.40;75.20;;;;;;5108858;28;19912;-81
2021/01/31 14:15:16;;;;;;;;;;;7.20;74.20;;;;;;5115294;28;20006;-81
2021/01/31 14:17:42;;;;;;;;;;;7.10;73.50;;;;;;5116243;28;19955;-80
2021/01/31 14:20:08;;;;;;;;;;;7.30;75.50;;;;;;5113251;28;19915;-81
2021/01/31 14:22:34;;;;;;;;;;;7.60;77.10;;;;;;5125073;27;19947;-81
2021/01/31 14:24:59;;;;;;;;;;;8.10;73.00;;;;;;5134770;27;20341;-81
2021/01/31 14:27:25;;;;;;;;;;;8.40;70.50;;;;;;5104979;28;19911;-81
2021/01/31 14:29:50;;;;;;;;;;;8.90;68.90;;;;;;5107058;27;19914;-81
2021/01/31 14:32:16;;;;;;;;;;;9.10;65.10;;;;;;5114977;27;19911;-81